Paddock Lake, Wisconsin
Current Conditions -  °F | °C
As of 4:53 AM on Sunday 21 Dec 2014 (Local Time) from KENW Reporting Station
Haze Haze  
Wind Chill: 26°   Ceiling: 3400
Heat Index: 32°   Visibility: 6mi
Dew Point: 27°   Wind: 7mph
Humidity: 82%   Direction: 170°S
Pressure: 30.19"   Gusts: NA
Location:  42.5866°N, 88.1341°W
Report Text: KENW 211053Z AUTO 17006KT 6SM HZ OVC034 00/M03 A3019 RMK AO2 SLP231 T00001028
Loading
Personal Weather Stations






























Interactive Weather Map New forecast layout! Learn more

10-Day Weather Forecast

Advertisements
Track Severe Weather on mobile